sensor_id;sensor_type;location;lat;lon;timestamp;temperature;humidity
66184;DHT22;52989;48.796;9.806;2022-07-25T00:02:17;20.20;94.10
66184;DHT22;52989;48.796;9.806;2022-07-25T00:04:43;20.20;92.70
66184;DHT22;52989;48.796;9.806;2022-07-25T00:07:09;20.30;92.40
66184;DHT22;52989;48.796;9.806;2022-07-25T00:09:34;20.30;92.10
66184;DHT22;52989;48.796;9.806;2022-07-25T00:12:00;20.20;92.90
66184;DHT22;52989;48.796;9.806;2022-07-25T00:14:25;20.10;93.40
66184;DHT22;52989;48.796;9.806;2022-07-25T00:16:51;20.30;92.50
66184;DHT22;52989;48.796;9.806;2022-07-25T00:19:17;19.90;93.60
66184;DHT22;52989;48.796;9.806;2022-07-25T00:21:43;19.80;94.20
66184;DHT22;52989;48.796;9.806;2022-07-25T00:24:09;19.60;94.90
66184;DHT22;52989;48.796;9.806;2022-07-25T00:26:34;19.80;94.20
66184;DHT22;52989;48.796;9.806;2022-07-25T00:29:00;19.60;95.60
66184;DHT22;52989;48.796;9.806;2022-07-25T00:31:26;19.60;95.50
66184;DHT22;52989;48.796;9.806;2022-07-25T00:33:51;19.30;96.20
66184;DHT22;52989;48.796;9.806;2022-07-25T00:36:17;19.60;96.10
66184;DHT22;52989;48.796;9.806;2022-07-25T00:38:43;19.40;96.40
66184;DHT22;52989;48.796;9.806;2022-07-25T00:41:08;19.90;95.50
66184;DHT22;52989;48.796;9.806;2022-07-25T00:43:34;19.90;94.90
66184;DHT22;52989;48.796;9.806;2022-07-25T00:45:59;20.00;95.20
66184;DHT22;52989;48.796;9.806;2022-07-25T00:48:28;19.80;95.30
66184;DHT22;52989;48.796;9.806;2022-07-25T00:50:54;19.50;96.90
66184;DHT22;52989;48.796;9.806;2022-07-25T00:53:21;19.80;96.10
66184;DHT22;52989;48.796;9.806;2022-07-25T00:55:46;19.80;95.60
66184;DHT22;52989;48.796;9.806;2022-07-25T00:58:12;19.60;96.10
66184;DHT22;52989;48.796;9.806;2022-07-25T01:00:38;19.50;95.60
66184;DHT22;52989;48.796;9.806;2022-07-25T01:03:03;19.90;95.70
66184;DHT22;52989;48.796;9.806;2022-07-25T01:05:29;19.80;95.10
66184;DHT22;52989;48.796;9.806;2022-07-25T01:07:55;19.90;96.30
66184;DHT22;52989;48.796;9.806;2022-07-25T01:10:21;19.70;95.80
66184;DHT22;52989;48.796;9.806;2022-07-25T01:12:50;19.80;96.00
66184;DHT22;52989;48.796;9.806;2022-07-25T01:15:20;19.40;96.80
66184;DHT22;52989;48.796;9.806;2022-07-25T01:17:46;19.30;97.10
66184;DHT22;52989;48.796;9.806;2022-07-25T01:20:16;19.40;96.90
66184;DHT22;52989;48.796;9.806;2022-07-25T01:22:42;19.50;96.60
66184;DHT22;52989;48.796;9.806;2022-07-25T01:25:09;19.50;96.80
66184;DHT22;52989;48.796;9.806;2022-07-25T01:27:35;19.40;97.00
66184;DHT22;52989;48.796;9.806;2022-07-25T01:30:01;19.80;95.70
66184;DHT22;52989;48.796;9.806;2022-07-25T01:32:26;19.80;95.90
66184;DHT22;52989;48.796;9.806;2022-07-25T01:34:52;19.60;96.60
66184;DHT22;52989;48.796;9.806;2022-07-25T01:37:17;19.50;97.30
66184;DHT22;52989;48.796;9.806;2022-07-25T01:39:43;19.30;97.80
66184;DHT22;52989;48.796;9.806;2022-07-25T01:42:08;19.20;98.40
66184;DHT22;52989;48.796;9.806;2022-07-25T01:44:34;19.10;98.60
66184;DHT22;52989;48.796;9.806;2022-07-25T01:47:00;19.20;98.60
66184;DHT22;52989;48.796;9.806;2022-07-25T01:49:25;19.20;97.90
66184;DHT22;52989;48.796;9.806;2022-07-25T01:51:51;19.50;96.90
66184;DHT22;52989;48.796;9.806;2022-07-25T01:54:17;19.70;96.00
66184;DHT22;52989;48.796;9.806;2022-07-25T01:56:43;19.80;96.10
66184;DHT22;52989;48.796;9.806;2022-07-25T01:59:09;19.60;95.70
66184;DHT22;52989;48.796;9.806;2022-07-25T02:01:35;19.70;95.90
66184;DHT22;52989;48.796;9.806;2022-07-25T02:04:01;19.70;96.50
66184;DHT22;52989;48.796;9.806;2022-07-25T02:06:27;19.80;96.20
66184;DHT22;52989;48.796;9.806;2022-07-25T02:08:53;19.60;96.70
66184;DHT22;52989;48.796;9.806;2022-07-25T02:11:19;19.80;96.20
66184;DHT22;52989;48.796;9.806;2022-07-25T02:13:44;19.50;97.40
66184;DHT22;52989;48.796;9.806;2022-07-25T02:16:11;19.40;98.00
66184;DHT22;52989;48.796;9.806;2022-07-25T02:18:37;19.40;98.00
66184;DHT22;52989;48.796;9.806;2022-07-25T02:21:02;19.30;98.20
66184;DHT22;52989;48.796;9.806;2022-07-25T02:23:32;19.30;98.60
66184;DHT22;52989;48.796;9.806;2022-07-25T02:25:57;19.30;98.80
66184;DHT22;52989;48.796;9.806;2022-07-25T02:28:23;19.60;98.80
66184;DHT22;52989;48.796;9.806;2022-07-25T02:30:48;19.50;98.40
66184;DHT22;52989;48.796;9.806;2022-07-25T02:33:14;19.20;99.60
66184;DHT22;52989;48.796;9.806;2022-07-25T02:35:40;19.10;99.90
66184;DHT22;52989;48.796;9.806;2022-07-25T02:38:06;19.30;99.60
66184;DHT22;52989;48.796;9.806;2022-07-25T02:40:31;19.40;98.60
66184;DHT22;52989;48.796;9.806;2022-07-25T02:42:57;19.70;98.20
66184;DHT22;52989;48.796;9.806;2022-07-25T02:45:23;19.70;97.90
66184;DHT22;52989;48.796;9.806;2022-07-25T02:47:48;19.60;98.10
66184;DHT22;52989;48.796;9.806;2022-07-25T02:50:14;19.40;98.70
66184;DHT22;52989;48.796;9.806;2022-07-25T02:52:40;19.50;98.90
66184;DHT22;52989;48.796;9.806;2022-07-25T02:55:06;19.60;98.40
66184;DHT22;52989;48.796;9.806;2022-07-25T02:57:32;19.60;98.30
66184;DHT22;52989;48.796;9.806;2022-07-25T02:59:57;20.00;97.80
66184;DHT22;52989;48.796;9.806;2022-07-25T03:02:23;19.70;98.00
66184;DHT22;52989;48.796;9.806;2022-07-25T03:04:48;19.40;99.10
66184;DHT22;52989;48.796;9.806;2022-07-25T03:07:14;19.10;99.70
66184;DHT22;52989;48.796;9.806;2022-07-25T03:09:39;19.30;99.90
66184;DHT22;52989;48.796;9.806;2022-07-25T03:12:05;19.40;99.50
66184;DHT22;52989;48.796;9.806;2022-07-25T03:14:31;19.20;99.90
66184;DHT22;52989;48.796;9.806;2022-07-25T03:16:56;19.00;99.90
66184;DHT22;52989;48.796;9.806;2022-07-25T03:19:22;19.20;99.90
66184;DHT22;52989;48.796;9.806;2022-07-25T03:21:48;19.40;99.90
66184;DHT22;52989;48.796;9.806;2022-07-25T03:24:13;19.30;99.90
66184;DHT22;52989;48.796;9.806;2022-07-25T03:26:39;19.30;99.90
66184;DHT22;52989;48.796;9.806;2022-07-25T03:29:05;19.60;99.90
66184;DHT22;52989;48.796;9.806;2022-07-25T03:31:30;19.50;99.90
66184;DHT22;52989;48.796;9.806;2022-07-25T03:33:56;19.10;99.90
66184;DHT22;52989;48.796;9.806;2022-07-25T03:36:21;19.20;99.90
66184;DHT22;52989;48.796;9.806;2022-07-25T03:38:47;19.00;99.90
66184;DHT22;52989;48.796;9.806;2022-07-25T03:41:13;18.90;99.90
66184;DHT22;52989;48.796;9.806;2022-07-25T03:43:38;18.90;99.90
66184;DHT22;52989;48.796;9.806;2022-07-25T03:46:04;18.80;99.90
66184;DHT22;52989;48.796;9.806;2022-07-25T03:48:30;18.70;99.90
66184;DHT22;52989;48.796;9.806;2022-07-25T03:50:56;19.30;99.90
66184;DHT22;52989;48.796;9.806;2022-07-25T03:53:21;19.20;99.90
66184;DHT22;52989;48.796;9.806;2022-07-25T03:55:47;19.60;99.80
66184;DHT22;52989;48.796;9.806;2022-07-25T03:58:13;19.70;99.60
66184;DHT22;52989;48.796;9.806;2022-07-25T04:00:38;19.40;99.90
66184;DHT22;52989;48.796;9.806;2022-07-25T04:03:04;19.30;99.90
66184;DHT22;52989;48.796;9.806;2022-07-25T04:05:31;19.10;99.90
66184;DHT22;52989;48.796;9.806;2022-07-25T04:07:57;18.80;99.90
66184;DHT22;52989;48.796;9.806;2022-07-25T04:10:22;18.60;99.90
66184;DHT22;52989;48.796;9.806;2022-07-25T04:12:48;18.50;99.90
66184;DHT22;52989;48.796;9.806;2022-07-25T04:15:14;18.50;99.90
66184;DHT22;52989;48.796;9.806;2022-07-25T04:17:40;18.70;99.90
66184;DHT22;52989;48.796;9.806;2022-07-25T04:20:06;18.70;99.90
66184;DHT22;52989;48.796;9.806;2022-07-25T04:22:32;18.60;99.90
66184;DHT22;52989;48.796;9.806;2022-07-25T04:24:58;18.60;99.90
66184;DHT22;52989;48.796;9.806;2022-07-25T04:27:23;18.50;99.90
66184;DHT22;52989;48.796;9.806;2022-07-25T04:29:49;18.50;99.90
66184;DHT22;52989;48.796;9.806;2022-07-25T04:32:14;18.40;99.90
66184;DHT22;52989;48.796;9.806;2022-07-25T04:34:41;18.50;99.90
66184;DHT22;52989;48.796;9.806;2022-07-25T04:37:08;18.60;99.90
66184;DHT22;52989;48.796;9.806;2022-07-25T04:39:33;18.50;99.90
66184;DHT22;52989;48.796;9.806;2022-07-25T04:41:59;18.50;99.90
66184;DHT22;52989;48.796;9.806;2022-07-25T04:44:25;18.40;99.90
66184;DHT22;52989;48.796;9.806;2022-07-25T04:46:50;18.40;99.90
66184;DHT22;52989;48.796;9.806;2022-07-25T04:49:16;18.50;99.90
66184;DHT22;52989;48.796;9.806;2022-07-25T04:51:41;18.50;99.90
66184;DHT22;52989;48.796;9.806;2022-07-25T04:54:07;18.40;99.90
66184;DHT22;52989;48.796;9.806;2022-07-25T04:56:33;18.50;99.90
66184;DHT22;52989;48.796;9.806;2022-07-25T04:58:59;18.30;99.90
66184;DHT22;52989;48.796;9.806;2022-07-25T05:01:25;18.30;99.90
66184;DHT22;52989;48.796;9.806;2022-07-25T05:03:50;18.40;99.90
66184;DHT22;52989;48.796;9.806;2022-07-25T05:06:17;18.40;99.90
66184;DHT22;52989;48.796;9.806;2022-07-25T05:08:43;18.50;99.90
66184;DHT22;52989;48.796;9.806;2022-07-25T05:11:09;18.60;99.90
66184;DHT22;52989;48.796;9.806;2022-07-25T05:13:35;18.60;99.90
66184;DHT22;52989;48.796;9.806;2022-07-25T05:16:01;18.80;99.90
66184;DHT22;52989;48.796;9.806;2022-07-25T05:18:27;19.00;99.90
66184;DHT22;52989;48.796;9.806;2022-07-25T05:20:53;18.90;99.90
66184;DHT22;52989;48.796;9.806;2022-07-25T05:23:18;18.90;99.90
66184;DHT22;52989;48.796;9.806;2022-07-25T05:25:44;19.00;99.90
66184;DHT22;52989;48.796;9.806;2022-07-25T05:28:10;19.20;99.90
66184;DHT22;52989;48.796;9.806;2022-07-25T05:30:35;19.30;99.90
66184;DHT22;52989;48.796;9.806;2022-07-25T05:33:01;19.70;99.90
66184;DHT22;52989;48.796;9.806;2022-07-25T05:35:27;19.90;99.90
66184;DHT22;52989;48.796;9.806;2022-07-25T05:37:52;20.10;99.90
66184;DHT22;52989;48.796;9.806;2022-07-25T05:40:18;20.40;99.90
66184;DHT22;52989;48.796;9.806;2022-07-25T05:42:44;20.30;99.90
66184;DHT22;52989;48.796;9.806;2022-07-25T05:45:10;20.30;99.90
66184;DHT22;52989;48.796;9.806;2022-07-25T05:47:35;20.40;99.90
66184;DHT22;52989;48.796;9.806;2022-07-25T05:50:01;20.90;99.90
66184;DHT22;52989;48.796;9.806;2022-07-25T05:52:27;20.80;99.90
66184;DHT22;52989;48.796;9.806;2022-07-25T05:54:52;21.10;99.90
66184;DHT22;52989;48.796;9.806;2022-07-25T05:57:18;21.10;99.90
66184;DHT22;52989;48.796;9.806;2022-07-25T05:59:44;21.10;99.90
66184;DHT22;52989;48.796;9.806;2022-07-25T06:02:09;21.20;99.90
66184;DHT22;52989;48.796;9.806;2022-07-25T06:04:35;21.40;99.90
66184;DHT22;52989;48.796;9.806;2022-07-25T06:07:01;21.50;99.90
66184;DHT22;52989;48.796;9.806;2022-07-25T06:09:26;21.80;99.40
66184;DHT22;52989;48.796;9.806;2022-07-25T06:11:52;21.80;99.90
66184;DHT22;52989;48.796;9.806;2022-07-25T06:14:18;21.90;99.40
66184;DHT22;52989;48.796;9.806;2022-07-25T06:16:43;22.00;99.40
66184;DHT22;52989;48.796;9.806;2022-07-25T06:19:09;22.30;97.80
66184;DHT22;52989;48.796;9.806;2022-07-25T06:21:35;22.50;98.20
66184;DHT22;52989;48.796;9.806;2022-07-25T06:24:01;21.90;99.90
66184;DHT22;52989;48.796;9.806;2022-07-25T06:26:27;22.00;99.50
66184;DHT22;52989;48.796;9.806;2022-07-25T06:28:52;22.10;99.90
66184;DHT22;52989;48.796;9.806;2022-07-25T06:31:18;22.20;99.90
66184;DHT22;52989;48.796;9.806;2022-07-25T06:33:43;22.30;99.90
66184;DHT22;52989;48.796;9.806;2022-07-25T06:36:09;22.70;98.20
66184;DHT22;52989;48.796;9.806;2022-07-25T06:38:35;22.80;98.60
66184;DHT22;52989;48.796;9.806;2022-07-25T06:41:01;22.80;97.90
66184;DHT22;52989;48.796;9.806;2022-07-25T06:43:26;23.00;96.80
66184;DHT22;52989;48.796;9.806;2022-07-25T06:45:52;23.60;96.40
66184;DHT22;52989;48.796;9.806;2022-07-25T06:48:18;23.60;96.60
66184;DHT22;52989;48.796;9.806;2022-07-25T06:50:44;23.30;98.50
66184;DHT22;52989;48.796;9.806;2022-07-25T06:53:09;23.30;97.90
66184;DHT22;52989;48.796;9.806;2022-07-25T06:55:35;23.50;96.80
66184;DHT22;52989;48.796;9.806;2022-07-25T06:58:01;23.60;96.60
66184;DHT22;52989;48.796;9.806;2022-07-25T07:00:26;23.70;95.30
66184;DHT22;52989;48.796;9.806;2022-07-25T07:02:57;24.00;94.50
66184;DHT22;52989;48.796;9.806;2022-07-25T07:05:27;24.10;93.70
66184;DHT22;52989;48.796;9.806;2022-07-25T07:07:53;24.00;95.10
66184;DHT22;52989;48.796;9.806;2022-07-25T07:10:20;24.10;95.00
66184;DHT22;52989;48.796;9.806;2022-07-25T07:12:47;24.20;95.50
66184;DHT22;52989;48.796;9.806;2022-07-25T07:15:13;24.20;95.00
66184;DHT22;52989;48.796;9.806;2022-07-25T07:17:39;24.20;93.80
66184;DHT22;52989;48.796;9.806;2022-07-25T07:20:05;24.30;94.80
66184;DHT22;52989;48.796;9.806;2022-07-25T07:22:34;24.60;92.00
66184;DHT22;52989;48.796;9.806;2022-07-25T07:25:07;24.80;92.00
66184;DHT22;52989;48.796;9.806;2022-07-25T07:27:33;24.90;91.10
66184;DHT22;52989;48.796;9.806;2022-07-25T07:29:58;25.00;89.90
66184;DHT22;52989;48.796;9.806;2022-07-25T07:32:24;25.40;88.70
66184;DHT22;52989;48.796;9.806;2022-07-25T07:34:49;25.50;88.30
66184;DHT22;52989;48.796;9.806;2022-07-25T07:37:16;25.60;88.00
66184;DHT22;52989;48.796;9.806;2022-07-25T07:39:42;25.60;87.90
66184;DHT22;52989;48.796;9.806;2022-07-25T07:42:07;25.60;87.40
66184;DHT22;52989;48.796;9.806;2022-07-25T07:44:33;25.70;87.90
66184;DHT22;52989;48.796;9.806;2022-07-25T07:46:59;25.80;85.10
66184;DHT22;52989;48.796;9.806;2022-07-25T07:49:27;26.10;83.60
66184;DHT22;52989;48.796;9.806;2022-07-25T07:51:53;26.10;84.40
66184;DHT22;52989;48.796;9.806;2022-07-25T07:54:19;26.00;86.90
66184;DHT22;52989;48.796;9.806;2022-07-25T07:57:03;26.00;85.50
66184;DHT22;52989;48.796;9.806;2022-07-25T07:59:29;26.00;86.50
66184;DHT22;52989;48.796;9.806;2022-07-25T08:01:54;25.90;89.30
66184;DHT22;52989;48.796;9.806;2022-07-25T08:04:20;25.70;90.20
66184;DHT22;52989;48.796;9.806;2022-07-25T08:06:45;25.90;84.10
66184;DHT22;52989;48.796;9.806;2022-07-25T08:09:11;26.10;83.30
66184;DHT22;52989;48.796;9.806;2022-07-25T08:11:36;26.30;84.00
66184;DHT22;52989;48.796;9.806;2022-07-25T08:14:02;26.40;82.40
66184;DHT22;52989;48.796;9.806;2022-07-25T08:16:29;26.50;81.90
66184;DHT22;52989;48.796;9.806;2022-07-25T08:18:54;27.00;78.20
66184;DHT22;52989;48.796;9.806;2022-07-25T08:21:20;27.50;78.10
66184;DHT22;52989;48.796;9.806;2022-07-25T08:23:45;27.70;73.60
66184;DHT22;52989;48.796;9.806;2022-07-25T08:26:12;27.70;73.20
66184;DHT22;52989;48.796;9.806;2022-07-25T08:28:39;27.80;73.20
66184;DHT22;52989;48.796;9.806;2022-07-25T08:31:05;28.00;73.30
66184;DHT22;52989;48.796;9.806;2022-07-25T08:33:30;27.90;75.00
66184;DHT22;52989;48.796;9.806;2022-07-25T08:35:56;28.00;74.20
66184;DHT22;52989;48.796;9.806;2022-07-25T08:38:23;28.40;71.40
66184;DHT22;52989;48.796;9.806;2022-07-25T08:40:50;28.20;73.70
66184;DHT22;52989;48.796;9.806;2022-07-25T08:43:17;28.60;73.10
66184;DHT22;52989;48.796;9.806;2022-07-25T08:45:49;28.40;71.70
66184;DHT22;52989;48.796;9.806;2022-07-25T08:48:20;28.30;71.80
66184;DHT22;52989;48.796;9.806;2022-07-25T08:50:47;28.80;71.10
66184;DHT22;52989;48.796;9.806;2022-07-25T08:53:14;29.00;69.20
66184;DHT22;52989;48.796;9.806;2022-07-25T08:55:40;29.20;67.00
66184;DHT22;52989;48.796;9.806;2022-07-25T08:58:10;29.20;68.00
66184;DHT22;52989;48.796;9.806;2022-07-25T09:00:36;29.00;70.00
66184;DHT22;52989;48.796;9.806;2022-07-25T09:03:02;29.40;68.50
66184;DHT22;52989;48.796;9.806;2022-07-25T09:05:31;29.10;67.00
66184;DHT22;52989;48.796;9.806;2022-07-25T09:08:06;29.10;67.50
66184;DHT22;52989;48.796;9.806;2022-07-25T09:10:32;29.20;67.50
66184;DHT22;52989;48.796;9.806;2022-07-25T09:13:04;29.30;67.80
66184;DHT22;52989;48.796;9.806;2022-07-25T09:15:34;29.30;66.80
66184;DHT22;52989;48.796;9.806;2022-07-25T09:18:06;29.30;66.50
66184;DHT22;52989;48.796;9.806;2022-07-25T09:20:46;29.60;67.60
66184;DHT22;52989;48.796;9.806;2022-07-25T09:23:15;29.30;71.60
66184;DHT22;52989;48.796;9.806;2022-07-25T09:25:51;29.40;65.30
66184;DHT22;52989;48.796;9.806;2022-07-25T09:28:18;29.30;65.10
66184;DHT22;52989;48.796;9.806;2022-07-25T09:30:57;29.50;64.70
66184;DHT22;52989;48.796;9.806;2022-07-25T09:33:24;29.60;63.00
66184;DHT22;52989;48.796;9.806;2022-07-25T09:35:51;29.50;63.60
66184;DHT22;52989;48.796;9.806;2022-07-25T09:38:17;29.60;63.10
66184;DHT22;52989;48.796;9.806;2022-07-25T09:40:54;29.40;63.00
66184;DHT22;52989;48.796;9.806;2022-07-25T09:43:22;29.80;64.60
66184;DHT22;52989;48.796;9.806;2022-07-25T09:45:49;29.80;62.70
66184;DHT22;52989;48.796;9.806;2022-07-25T09:48:17;29.50;62.10
66184;DHT22;52989;48.796;9.806;2022-07-25T09:50:44;29.50;61.80
66184;DHT22;52989;48.796;9.806;2022-07-25T09:53:10;29.60;61.70
66184;DHT22;52989;48.796;9.806;2022-07-25T09:55:36;29.80;61.00
66184;DHT22;52989;48.796;9.806;2022-07-25T09:58:02;30.00;60.30
66184;DHT22;52989;48.796;9.806;2022-07-25T10:00:30;29.80;60.50
66184;DHT22;52989;48.796;9.806;2022-07-25T10:06:01;30.80;58.60
66184;DHT22;52989;48.796;9.806;2022-07-25T10:08:27;31.00;57.70
66184;DHT22;52989;48.796;9.806;2022-07-25T10:10:53;31.10;56.30
66184;DHT22;52989;48.796;9.806;2022-07-25T10:13:30;31.00;56.20
66184;DHT22;52989;48.796;9.806;2022-07-25T10:15:56;30.80;57.20
66184;DHT22;52989;48.796;9.806;2022-07-25T10:18:26;30.60;56.90
66184;DHT22;52989;48.796;9.806;2022-07-25T10:21:09;30.70;56.10
66184;DHT22;52989;48.796;9.806;2022-07-25T10:23:35;30.70;56.60
66184;DHT22;52989;48.796;9.806;2022-07-25T10:26:11;31.60;53.20
66184;DHT22;52989;48.796;9.806;2022-07-25T10:28:46;31.60;52.70
66184;DHT22;52989;48.796;9.806;2022-07-25T10:31:25;31.50;52.80
66184;DHT22;52989;48.796;9.806;2022-07-25T10:34:00;31.20;55.50
66184;DHT22;52989;48.796;9.806;2022-07-25T10:36:39;30.90;57.30
66184;DHT22;52989;48.796;9.806;2022-07-25T10:39:08;30.60;55.50
66184;DHT22;52989;48.796;9.806;2022-07-25T10:41:39;30.30;57.20
66184;DHT22;52989;48.796;9.806;2022-07-25T10:44:13;30.00;56.70
66184;DHT22;52989;48.796;9.806;2022-07-25T10:46:40;30.70;57.70
66184;DHT22;52989;48.796;9.806;2022-07-25T10:49:18;30.80;56.50
66184;DHT22;52989;48.796;9.806;2022-07-25T10:51:55;31.10;54.10
66184;DHT22;52989;48.796;9.806;2022-07-25T10:54:21;31.40;52.80
66184;DHT22;52989;48.796;9.806;2022-07-25T10:56:52;31.60;51.90
66184;DHT22;52989;48.796;9.806;2022-07-25T10:59:31;31.50;53.80
66184;DHT22;52989;48.796;9.806;2022-07-25T11:01:58;31.30;56.90
66184;DHT22;52989;48.796;9.806;2022-07-25T11:04:24;31.60;52.80
66184;DHT22;52989;48.796;9.806;2022-07-25T11:06:49;31.70;54.80
66184;DHT22;52989;48.796;9.806;2022-07-25T11:09:26;31.90;54.90
66184;DHT22;52989;48.796;9.806;2022-07-25T11:11:54;32.40;52.80
66184;DHT22;52989;48.796;9.806;2022-07-25T11:14:22;31.80;55.90
66184;DHT22;52989;48.796;9.806;2022-07-25T11:16:50;31.80;52.60
66184;DHT22;52989;48.796;9.806;2022-07-25T11:19:24;31.60;54.30
66184;DHT22;52989;48.796;9.806;2022-07-25T11:22:00;31.60;54.60
66184;DHT22;52989;48.796;9.806;2022-07-25T11:27:00;32.10;53.20
66184;DHT22;52989;48.796;9.806;2022-07-25T11:29:25;32.40;53.10
66184;DHT22;52989;48.796;9.806;2022-07-25T11:32:08;32.40;55.00
66184;DHT22;52989;48.796;9.806;2022-07-25T11:34:42;32.50;54.80
66184;DHT22;52989;48.796;9.806;2022-07-25T11:37:10;33.40;54.50
66184;DHT22;52989;48.796;9.806;2022-07-25T11:39:38;33.20;51.30
66184;DHT22;52989;48.796;9.806;2022-07-25T11:42:09;33.20;52.80
66184;DHT22;52989;48.796;9.806;2022-07-25T11:44:36;33.20;51.80
66184;DHT22;52989;48.796;9.806;2022-07-25T11:47:04;32.90;50.80
66184;DHT22;52989;48.796;9.806;2022-07-25T11:49:30;33.20;51.30
66184;DHT22;52989;48.796;9.806;2022-07-25T11:51:56;33.30;51.80
66184;DHT22;52989;48.796;9.806;2022-07-25T11:54:22;33.50;53.30
66184;DHT22;52989;48.796;9.806;2022-07-25T11:56:47;33.50;53.50
66184;DHT22;52989;48.796;9.806;2022-07-25T11:59:13;33.50;52.80
66184;DHT22;52989;48.796;9.806;2022-07-25T12:01:41;33.50;51.50
66184;DHT22;52989;48.796;9.806;2022-07-25T12:04:12;33.20;50.30
66184;DHT22;52989;48.796;9.806;2022-07-25T12:06:40;33.30;49.60
66184;DHT22;52989;48.796;9.806;2022-07-25T12:09:10;33.40;51.20
66184;DHT22;52989;48.796;9.806;2022-07-25T12:11:36;33.30;50.20
66184;DHT22;52989;48.796;9.806;2022-07-25T12:14:03;33.50;51.10
66184;DHT22;52989;48.796;9.806;2022-07-25T12:16:30;33.50;50.60
66184;DHT22;52989;48.796;9.806;2022-07-25T12:18:56;33.30;52.30
66184;DHT22;52989;48.796;9.806;2022-07-25T12:21:22;34.40;50.80
66184;DHT22;52989;48.796;9.806;2022-07-25T12:23:47;34.00;49.90
66184;DHT22;52989;48.796;9.806;2022-07-25T12:26:13;33.90;47.50
66184;DHT22;52989;48.796;9.806;2022-07-25T12:28:39;33.80;48.70
66184;DHT22;52989;48.796;9.806;2022-07-25T12:31:05;33.80;49.20
66184;DHT22;52989;48.796;9.806;2022-07-25T12:33:31;34.50;48.70
66184;DHT22;52989;48.796;9.806;2022-07-25T12:35:58;33.80;49.30
66184;DHT22;52989;48.796;9.806;2022-07-25T12:38:24;34.50;49.60
66184;DHT22;52989;48.796;9.806;2022-07-25T12:40:50;34.50;48.20
66184;DHT22;52989;48.796;9.806;2022-07-25T12:43:17;34.40;47.40
66184;DHT22;52989;48.796;9.806;2022-07-25T12:45:42;34.20;47.50
66184;DHT22;52989;48.796;9.806;2022-07-25T12:48:08;34.20;47.60
66184;DHT22;52989;48.796;9.806;2022-07-25T12:50:34;34.30;48.40
66184;DHT22;52989;48.796;9.806;2022-07-25T12:53:00;34.40;49.40
66184;DHT22;52989;48.796;9.806;2022-07-25T12:55:26;34.70;46.30
66184;DHT22;52989;48.796;9.806;2022-07-25T12:57:52;34.30;48.30
66184;DHT22;52989;48.796;9.806;2022-07-25T13:00:20;34.60;48.20
66184;DHT22;52989;48.796;9.806;2022-07-25T13:02:47;34.40;47.60
66184;DHT22;52989;48.796;9.806;2022-07-25T13:05:13;34.60;47.50
66184;DHT22;52989;48.796;9.806;2022-07-25T13:07:38;34.80;47.20
66184;DHT22;52989;48.796;9.806;2022-07-25T13:10:05;35.00;48.80
66184;DHT22;52989;48.796;9.806;2022-07-25T13:12:31;35.20;47.90
66184;DHT22;52989;48.796;9.806;2022-07-25T13:14:57;35.20;47.30
66184;DHT22;52989;48.796;9.806;2022-07-25T13:17:22;34.90;47.70
66184;DHT22;52989;48.796;9.806;2022-07-25T13:19:48;35.40;48.50
66184;DHT22;52989;48.796;9.806;2022-07-25T13:22:14;35.80;47.50
66184;DHT22;52989;48.796;9.806;2022-07-25T13:24:39;35.80;46.00
66184;DHT22;52989;48.796;9.806;2022-07-25T13:27:05;35.50;46.50
66184;DHT22;52989;48.796;9.806;2022-07-25T13:29:31;35.70;47.00
66184;DHT22;52989;48.796;9.806;2022-07-25T13:31:57;36.00;44.40
66184;DHT22;52989;48.796;9.806;2022-07-25T13:34:23;36.00;45.00
66184;DHT22;52989;48.796;9.806;2022-07-25T13:36:48;36.00;44.40
66184;DHT22;52989;48.796;9.806;2022-07-25T13:39:14;35.60;46.10
66184;DHT22;52989;48.796;9.806;2022-07-25T13:41:39;35.80;47.00
66184;DHT22;52989;48.796;9.806;2022-07-25T13:44:05;35.50;44.50
66184;DHT22;52989;48.796;9.806;2022-07-25T13:46:31;35.10;44.60
66184;DHT22;52989;48.796;9.806;2022-07-25T13:48:57;35.00;45.00
66184;DHT22;52989;48.796;9.806;2022-07-25T13:51:23;35.20;44.60
66184;DHT22;52989;48.796;9.806;2022-07-25T13:53:48;35.20;44.60
66184;DHT22;52989;48.796;9.806;2022-07-25T13:56:14;35.30;44.70
66184;DHT22;52989;48.796;9.806;2022-07-25T13:58:40;35.00;45.20
66184;DHT22;52989;48.796;9.806;2022-07-25T14:01:07;34.70;45.00
66184;DHT22;52989;48.796;9.806;2022-07-25T14:03:33;34.80;45.80
66184;DHT22;52989;48.796;9.806;2022-07-25T14:06:00;35.10;44.20
66184;DHT22;52989;48.796;9.806;2022-07-25T14:08:26;35.10;44.30
66184;DHT22;52989;48.796;9.806;2022-07-25T14:10:52;35.10;43.50
66184;DHT22;52989;48.796;9.806;2022-07-25T14:13:17;35.20;46.40
66184;DHT22;52989;48.796;9.806;2022-07-25T14:15:43;35.50;45.70
66184;DHT22;52989;48.796;9.806;2022-07-25T14:18:09;35.20;45.40
66184;DHT22;52989;48.796;9.806;2022-07-25T14:20:35;35.60;45.50
66184;DHT22;52989;48.796;9.806;2022-07-25T14:23:01;35.20;45.40
66184;DHT22;52989;48.796;9.806;2022-07-25T14:25:26;34.90;46.20
66184;DHT22;52989;48.796;9.806;2022-07-25T14:27:52;34.40;46.10
66184;DHT22;52989;48.796;9.806;2022-07-25T14:30:18;34.50;46.20
66184;DHT22;52989;48.796;9.806;2022-07-25T14:32:43;34.20;46.00
66184;DHT22;52989;48.796;9.806;2022-07-25T14:35:09;34.20;47.10
66184;DHT22;52989;48.796;9.806;2022-07-25T14:37:36;33.70;47.30
66184;DHT22;52989;48.796;9.806;2022-07-25T14:40:03;33.70;46.40
66184;DHT22;52989;48.796;9.806;2022-07-25T14:42:29;33.80;47.20
66184;DHT22;52989;48.796;9.806;2022-07-25T14:44:55;33.80;47.20
66184;DHT22;52989;48.796;9.806;2022-07-25T14:47:21;33.70;47.40
66184;DHT22;52989;48.796;9.806;2022-07-25T14:49:47;33.60;47.10
66184;DHT22;52989;48.796;9.806;2022-07-25T14:52:12;33.40;47.20
66184;DHT22;52989;48.796;9.806;2022-07-25T14:54:40;33.30;47.70
66184;DHT22;52989;48.796;9.806;2022-07-25T14:57:07;33.20;47.40
66184;DHT22;52989;48.796;9.806;2022-07-25T14:59:33;33.00;48.00
66184;DHT22;52989;48.796;9.806;2022-07-25T15:02:00;32.80;48.00
66184;DHT22;52989;48.796;9.806;2022-07-25T15:04:27;32.60;47.70
66184;DHT22;52989;48.796;9.806;2022-07-25T15:06:52;32.50;49.00
66184;DHT22;52989;48.796;9.806;2022-07-25T15:09:19;32.60;49.20
66184;DHT22;52989;48.796;9.806;2022-07-25T15:11:45;32.20;56.70
66184;DHT22;52989;48.796;9.806;2022-07-25T15:14:10;26.80;81.30
66184;DHT22;52989;48.796;9.806;2022-07-25T15:16:36;26.00;83.90
66184;DHT22;52989;48.796;9.806;2022-07-25T15:19:02;25.80;99.90
66184;DHT22;52989;48.796;9.806;2022-07-25T15:21:28;25.50;97.50
66184;DHT22;52989;48.796;9.806;2022-07-25T15:23:54;24.80;99.90
66184;DHT22;52989;48.796;9.806;2022-07-25T15:26:21;24.90;99.90
66184;DHT22;52989;48.796;9.806;2022-07-25T15:28:48;24.50;99.90
66184;DHT22;52989;48.796;9.806;2022-07-25T15:31:13;24.60;99.90
66184;DHT22;52989;48.796;9.806;2022-07-25T15:33:39;25.20;99.90